Time;durP1;ratioP1;P1;durP2;ratioP2;P2;SDS_P1;SDS_P2;PMS_P1;PMS_P2;Temp;Humidity;BMP_temperature;BMP_pressure;BME280_temperature;BME280_humidity;BME280_pressure;Samples;Min_cycle;Max_cycle;Signal;HPM_P1;HPM_P2
2021/12/17 00:00:49;;;;;;;5.00;3.60;;;;;;;20.94;31.80;100782.13;5129638;27;20042;-60
2021/12/17 00:03:34;;;;;;;5.78;4.05;;;;;;;20.93;31.85;100780.47;5129141;27;20039;-61
2021/12/17 00:06:13;;;;;;;5.30;4.07;;;;;;;20.93;31.81;100786.03;5129696;27;20051;-61
2021/12/17 00:08:47;;;;;;;5.00;3.88;;;;;;;20.92;31.62;100785.22;5129639;27;20043;-61
2021/12/17 00:11:13;;;;;;;5.30;3.90;;;;;;;21.05;31.68;100784.09;5129691;27;20074;-61
2021/12/17 00:13:42;;;;;;;4.10;3.20;;;;;;;21.97;30.59;100786.44;5130602;27;20070;-60
2021/12/17 00:16:15;;;;;;;4.55;3.22;;;;;;;23.21;28.76;100777.38;5133233;27;20084;-61
2021/12/17 00:18:57;;;;;;;4.53;3.03;;;;;;;23.22;28.50;100790.19;5133020;27;20060;-61
2021/12/17 00:48:57;;;;;;;5.15;3.45;;;;;;;22.00;29.89;100790.50;5089453;28;20051;-55
2021/12/17 00:51:57;;;;;;;4.82;3.53;;;;;;;21.84;30.54;100795.16;5089343;28;20044;-54
2021/12/17 00:54:34;;;;;;;4.93;3.60;;;;;;;21.67;30.39;100787.84;5089088;28;20048;-55
2021/12/17 00:57:07;;;;;;;4.75;3.40;;;;;;;21.54;30.71;100789.81;5089026;28;20040;-55
2021/12/17 00:59:33;;;;;;;4.00;2.92;;;;;;;21.45;30.88;100785.53;5088845;28;20080;-61
2021/12/17 01:02:03;;;;;;;4.57;3.15;;;;;;;21.39;30.72;100796.88;5089106;28;20143;-61
2021/12/17 01:04:28;;;;;;;4.18;3.13;;;;;;;21.33;30.74;100789.09;5088901;28;20060;-61
2021/12/17 01:06:54;;;;;;;4.60;3.15;;;;;;;21.30;30.88;100787.00;5088851;28;20044;-61
2021/12/17 01:09:22;;;;;;;4.85;3.15;;;;;;;21.27;31.10;100788.44;5088908;28;20089;-61
2021/12/17 01:11:48;;;;;;;4.30;3.20;;;;;;;21.24;31.03;100791.94;5088690;28;20591;-61
2021/12/17 01:14:15;;;;;;;4.03;2.67;;;;;;;21.22;30.97;100788.69;5100556;28;20113;-61
2021/12/17 01:16:40;;;;;;;3.60;2.65;;;;;;;21.82;30.25;100795.50;5132077;28;20043;-61
2021/12/17 01:35:25;;;;;;;3.40;2.30;;;;;;;22.61;28.91;100807.16;5132079;28;20422;-60
2021/12/17 01:43:20;;;;;;;2.80;2.00;;;;;;;21.83;29.89;100802.72;5131952;28;20112;-61
2021/12/17 01:45:46;;;;;;;2.95;2.15;;;;;;;21.68;30.06;100806.19;5130635;27;20126;-61
2021/12/17 01:48:19;;;;;;;3.53;2.35;;;;;;;21.59;30.05;100805.50;5112547;27;20475;-60
2021/12/17 02:01:26;;;;;;;3.55;2.40;;;;;;;21.29;30.64;100804.84;5111050;28;20161;-61
2021/12/17 02:03:52;;;;;;;2.70;1.98;;;;;;;21.26;30.60;100803.53;5111139;28;20043;-61
2021/12/17 02:06:18;;;;;;;3.05;2.08;;;;;;;21.23;30.78;100812.59;5110891;28;20050;-60
2021/12/17 02:08:46;;;;;;;3.90;2.03;;;;;;;21.21;30.68;100820.44;5111001;28;20035;-61
2021/12/17 02:11:55;;;;;;;2.90;2.10;;;;;;;21.17;30.63;100809.19;5110833;28;20051;-61
2021/12/17 02:19:45;;;;;;;2.72;1.80;;;;;;;21.08;30.60;100804.88;5110817;28;20046;-61
2021/12/17 02:32:54;;;;;;;2.83;1.98;;;;;;;21.05;30.58;100806.38;5110644;28;20060;-61
2021/12/17 02:35:30;;;;;;;2.83;1.90;;;;;;;21.06;30.56;100801.59;5110618;28;20040;-61
2021/12/17 02:37:56;;;;;;;2.90;2.00;;;;;;;21.05;30.33;100809.16;5110411;28;20184;-61
2021/12/17 02:45:34;;;;;;;3.30;2.10;;;;;;;21.06;30.42;100802.41;5110338;28;20514;-56
2021/12/17 02:48:02;;;;;;;2.90;2.00;;;;;;;21.07;30.06;100803.22;5110494;28;20051;-55
2021/12/17 02:50:28;;;;;;;2.65;1.90;;;;;;;21.07;30.32;100803.22;5110209;28;20051;-55
2021/12/17 02:52:55;;;;;;;2.90;1.83;;;;;;;21.07;30.27;100806.81;5110039;28;20096;-56
2021/12/17 02:55:22;;;;;;;2.83;1.88;;;;;;;21.07;30.43;100811.59;5110297;28;20051;-55
2021/12/17 02:57:48;;;;;;;2.67;1.85;;;;;;;21.07;30.25;100806.00;5110211;28;20044;-56
2021/12/17 03:00:15;;;;;;;2.70;1.83;;;;;;;21.06;30.23;100801.59;5110432;28;20036;-55
2021/12/17 03:02:41;;;;;;;3.08;1.90;;;;;;;21.05;30.12;100805.56;5110056;28;20078;-55
2021/12/17 03:05:08;;;;;;;2.85;1.85;;;;;;;21.66;29.58;100817.69;5110122;28;20040;-55
2021/12/17 03:07:38;;;;;;;3.03;2.03;;;;;;;22.81;28.13;100813.72;5110182;28;20036;-56
2021/12/17 03:10:08;;;;;;;2.63;1.70;;;;;;;23.98;26.74;100807.69;5109709;28;20036;-56
2021/12/17 03:15:25;;;;;;;3.10;1.73;;;;;;;23.35;27.04;100818.81;5110046;28;20093;-54
2021/12/17 03:23:39;;;;;;;2.50;1.60;;;;;;;22.12;28.94;100828.72;5110103;28;20514;-54
2021/12/17 03:26:26;;;;;;;2.90;1.80;;;;;;;21.94;29.23;100831.75;5109649;28;20138;-52
2021/12/17 03:28:57;;;;;;;2.47;1.60;;;;;;;22.44;28.49;100832.53;5109746;28;20047;-54
2021/12/17 03:31:24;;;;;;;2.22;1.40;;;;;;;23.31;27.51;100832.69;5109552;28;20052;-53
2021/12/17 03:33:55;;;;;;;2.88;1.77;;;;;;;23.56;26.75;100827.75;5109511;28;20181;-55
2021/12/17 03:36:21;;;;;;;2.72;1.73;;;;;;;23.25;27.20;100831.31;5109667;28;20076;-53
2021/12/17 03:38:49;;;;;;;2.45;1.73;;;;;;;22.89;27.75;100834.28;5109644;28;20040;-54
2021/12/17 03:41:22;;;;;;;2.58;1.70;;;;;;;23.13;27.57;100828.59;5109591;28;20086;-54
2021/12/17 03:43:50;;;;;;;2.75;2.10;;;;;;;23.51;26.98;100824.44;5109577;28;20047;-54
2021/12/17 03:46:18;;;;;;;3.13;1.90;;;;;;;23.30;27.19;100833.06;5109472;28;20047;-54
2021/12/17 03:48:43;;;;;;;2.80;2.10;;;;;;;22.95;27.75;100830.91;5110465;28;20051;-55
2021/12/17 03:51:17;;;;;;;2.67;1.70;;;;;;;22.61;28.13;100835.03;5113017;28;20044;-54
2021/12/17 03:53:46;;;;;;;2.92;1.88;;;;;;;22.33;28.51;100837.75;5112998;28;20476;-54
2021/12/17 03:56:12;;;;;;;2.50;1.70;;;;;;;22.09;28.90;100833.03;5113078;28;20380;-55
2021/12/17 03:58:39;;;;;;;2.35;1.45;;;;;;;21.92;28.95;100836.81;5112701;28;20576;-55
2021/12/17 04:01:05;;;;;;;2.70;1.80;;;;;;;21.78;29.15;100832.75;5113043;28;20050;-55
2021/12/17 04:03:30;;;;;;;2.25;1.52;;;;;;;21.66;29.10;100836.34;5112913;28;20039;-54
2021/12/17 04:05:56;;;;;;;2.50;1.75;;;;;;;21.60;29.38;100840.53;5112777;28;20415;-55
2021/12/17 04:08:21;;;;;;;2.92;1.73;;;;;;;21.53;29.72;100840.28;5112890;28;20050;-54
2021/12/17 04:10:50;;;;;;;2.88;1.77;;;;;;;21.46;29.58;100843.63;5112631;28;20044;-54
2021/12/17 04:13:27;;;;;;;2.50;1.77;;;;;;;21.41;29.54;100841.88;5112475;28;20403;-54
2021/12/17 04:16:02;;;;;;;3.13;2.00;;;;;;;21.34;29.84;100852.75;5112630;28;20083;-54
2021/12/17 04:18:32;;;;;;;2.90;1.92;;;;;;;21.30;29.70;100846.25;5112732;28;20047;-61
2021/12/17 04:20:59;;;;;;;2.50;1.83;;;;;;;21.30;29.71;100849.03;5112658;28;20047;-61
2021/12/17 04:23:25;;;;;;;2.60;1.92;;;;;;;21.27;29.74;100852.47;5112650;28;20051;-61
2021/12/17 04:25:51;;;;;;;2.90;1.95;;;;;;;21.25;29.83;100849.22;5112898;28;20043;-61
2021/12/17 04:28:18;;;;;;;3.60;2.38;;;;;;;21.23;30.10;100857.09;5112682;28;20051;-61
2021/12/17 04:30:45;;;;;;;3.03;2.08;;;;;;;21.22;30.08;100865.78;5112514;28;20044;-61
2021/12/17 04:33:11;;;;;;;3.70;2.40;;;;;;;21.22;30.10;100863.00;5112154;28;20051;-61
2021/12/17 04:35:37;;;;;;;3.90;2.63;;;;;;;21.21;30.18;100864.16;5112385;28;20050;-61
2021/12/17 04:38:05;;;;;;;3.58;2.50;;;;;;;21.16;30.15;100859.63;5112305;28;20035;-61
2021/12/17 04:40:31;;;;;;;3.58;2.60;;;;;;;21.14;30.22;100861.91;5112410;28;20545;-61
2021/12/17 04:43:10;;;;;;;3.72;2.63;;;;;;;21.14;30.33;100870.25;5112354;28;20127;-55
2021/12/17 04:45:42;;;;;;;3.85;2.65;;;;;;;21.10;30.39;100869.34;5112453;28;20085;-55
2021/12/17 04:59:05;;;;;;;3.83;2.92;;;;;;;21.01;30.33;100880.53;5108179;28;20458;-56
2021/12/17 05:01:30;;;;;;;4.03;2.80;;;;;;;21.02;30.28;100881.34;5110716;28;20077;-53
2021/12/17 05:03:56;;;;;;;4.25;2.80;;;;;;;21.02;30.44;100884.13;5111852;28;20043;-55
2021/12/17 05:06:28;;;;;;;4.43;2.92;;;;;;;21.02;30.51;100882.16;5112035;28;20059;-55
2021/12/17 05:08:57;;;;;;;3.95;2.70;;;;;;;20.99;30.37;100880.06;5111803;28;20036;-55
2021/12/17 05:19:53;;;;;;;3.80;2.47;;;;;;;23.85;26.96;100890.78;5068456;28;20110;-54
2021/12/17 05:22:19;;;;;;;3.50;2.45;;;;;;;23.66;26.70;100890.72;5068689;28;20139;-56
2021/12/17 05:24:45;;;;;;;3.42;2.20;;;;;;;23.23;27.36;100895.09;5068557;28;20083;-56
2021/12/17 05:27:10;;;;;;;3.33;2.50;;;;;;;22.80;27.89;100890.22;5068742;28;20037;-56
2021/12/17 05:29:36;;;;;;;3.88;2.42;;;;;;;22.47;28.49;100899.53;5068577;28;20045;-61
2021/12/17 05:32:04;;;;;;;3.55;2.38;;;;;;;22.17;28.71;100898.19;5067776;28;20067;-60
2021/12/17 05:34:30;;;;;;;3.45;2.20;;;;;;;21.92;29.17;100894.50;5090075;28;20040;-60
2021/12/17 05:36:55;;;;;;;3.45;2.50;;;;;;;21.74;29.27;100893.91;5091277;28;20526;-61
2021/12/17 05:39:21;;;;;;;3.15;2.15;;;;;;;21.61;29.22;100898.63;5090979;28;20469;-61
2021/12/17 05:41:46;;;;;;;3.22;2.20;;;;;;;21.52;29.71;100899.91;5090840;28;20044;-61
2021/12/17 05:44:14;;;;;;;3.67;2.40;;;;;;;21.42;29.50;100899.16;5091035;28;20825;-61
2021/12/17 05:46:49;;;;;;;3.53;2.40;;;;;;;21.37;29.91;100901.38;5091071;28;20609;-61
2021/12/17 05:49:20;;;;;;;3.78;2.60;;;;;;;21.29;30.26;100905.03;5091105;28;20047;-61
2021/12/17 05:51:46;;;;;;;3.78;2.70;;;;;;;21.27;29.80;100907.31;5090949;28;20040;-62
2021/12/17 05:54:12;;;;;;;4.15;2.70;;;;;;;21.24;29.96;100910.78;5090655;28;20043;-62
2021/12/17 05:56:39;;;;;;;4.00;2.90;;;;;;;21.21;30.20;100908.66;5090747;28;20063;-61
2021/12/17 05:59:05;;;;;;;3.70;2.75;;;;;;;21.20;29.99;100907.84;5090463;28;20170;-61
2021/12/17 06:01:31;;;;;;;4.25;3.00;;;;;;;21.18;30.22;100912.97;5090576;28;20546;-61
2021/12/17 06:03:57;;;;;;;4.00;2.95;;;;;;;21.15;30.29;100908.09;5090613;28;20036;-62
2021/12/17 06:06:35;;;;;;;3.30;2.38;;;;;;;21.14;30.08;100912.00;5089258;28;20442;-61
2021/12/17 06:09:05;;;;;;;3.97;2.92;;;;;;;21.13;30.30;100910.38;5090802;28;20048;-61
2021/12/17 06:11:30;;;;;;;3.65;2.60;;;;;;;21.10;30.29;100902.72;5089848;28;20574;-61
2021/12/17 06:13:56;;;;;;;4.90;2.97;;;;;;;21.11;30.04;100910.72;5090447;28;20131;-61
2021/12/17 06:16:21;;;;;;;4.00;3.00;;;;;;;21.07;30.16;100908.94;5090441;28;20081;-62
2021/12/17 06:18:46;;;;;;;4.38;3.15;;;;;;;21.08;30.31;100910.59;5090355;28;20048;-61
2021/12/17 06:21:12;;;;;;;3.83;2.50;;;;;;;21.08;30.35;100911.41;5090330;28;20044;-61
2021/12/17 06:23:38;;;;;;;3.78;2.75;;;;;;;21.08;30.37;100916.97;5090340;28;20058;-61
2021/12/17 06:26:05;;;;;;;4.10;2.70;;;;;;;21.07;30.28;100926.44;5090457;28;20048;-61
2021/12/17 06:28:30;;;;;;;3.67;2.85;;;;;;;21.06;30.14;100924.84;5090184;28;20094;-54
2021/12/17 06:30:55;;;;;;;3.70;2.85;;;;;;;21.05;30.28;100928.78;5090349;28;20048;-56
2021/12/17 06:33:21;;;;;;;4.10;2.83;;;;;;;21.06;30.50;100929.59;5090109;28;20055;-55
2021/12/17 06:35:46;;;;;;;4.15;3.00;;;;;;;21.07;30.43;100942.34;5089891;28;20079;-55
2021/12/17 06:38:12;;;;;;;3.70;2.85;;;;;;;21.06;30.06;100935.97;5090066;28;20467;-62
2021/12/17 06:40:37;;;;;;;4.10;3.10;;;;;;;21.05;30.35;100941.88;5090033;28;20048;-62
2021/12/17 06:43:03;;;;;;;4.50;3.10;;;;;;;21.05;30.50;100941.88;5089988;28;20044;-62
2021/12/17 06:46:15;;;;;;;19.88;3.75;;;;;;;21.06;30.51;100940.72;5090058;28;20043;-62
2021/12/17 06:48:25;;;;;;;10.15;3.35;;;;;;;21.06;30.44;100941.53;5086934;28;20047;-62
2021/12/17 07:33:59;;;;;;;5.30;3.08;;;;;;;23.13;27.82;100975.72;5072652;28;20152;-61
2021/12/17 07:36:09;;;;;;;5.10;3.60;;;;;;;22.82;28.14;100988.31;5069721;28;20048;-61
2021/12/17 07:41:02;;;;;;;4.60;3.20;;;;;;;22.21;28.78;100986.31;5072563;28;20540;-61
2021/12/17 07:43:35;;;;;;;6.97;3.00;;;;;;;21.95;29.38;100981.00;5072701;28;20475;-61
2021/12/17 07:46:04;;;;;;;4.07;3.00;;;;;;;21.82;29.70;100984.09;5079091;28;20571;-55
2021/12/17 07:48:31;;;;;;;5.35;3.20;;;;;;;22.38;28.62;100988.09;5092066;28;20055;-53
2021/12/17 07:50:58;;;;;;;15.05;4.13;;;;;;;23.50;26.99;100984.78;5091605;28;20415;-54
2021/12/17 07:53:23;;;;;;;16.48;4.70;;;;;;;24.34;25.95;100991.13;5091591;28;20044;-56
2021/12/17 07:55:49;;;;;;;12.27;4.75;;;;;;;23.93;26.40;101003.56;5077287;28;20380;-54
2021/12/17 07:58:15;;;;;;;18.27;5.55;;;;;;;23.38;27.08;100999.63;5074029;28;20378;-54
2021/12/17 08:00:41;;;;;;;13.38;4.95;;;;;;;22.92;27.49;100993.41;5071375;28;20660;-53
2021/12/17 08:03:07;;;;;;;16.20;5.63;;;;;;;22.55;28.30;101000.16;5071441;28;20047;-55
2021/12/17 08:05:32;;;;;;;11.05;4.70;;;;;;;22.27;28.55;101002.81;5071532;28;20408;-54
2021/12/17 08:07:58;;;;;;;15.40;4.90;;;;;;;22.05;28.81;101012.38;5071695;28;20036;-54
2021/12/17 08:10:23;;;;;;;8.75;4.30;;;;;;;22.30;28.85;101019.66;5073465;28;20048;-54
2021/12/17 08:12:54;;;;;;;15.40;4.93;;;;;;;23.00;27.72;101014.00;5083567;28;20056;-47
2021/12/17 08:15:22;;;;;;;9.50;4.75;;;;;;;22.83;28.17;101017.81;5075886;28;20170;-47
2021/12/17 08:18:23;;;;;;;10.98;4.38;;;;;;;22.53;28.22;101026.44;5071835;28;20186;-47
2021/12/17 08:26:04;;;;;;;8.75;4.40;;;;;;;23.41;27.29;101032.41;5071216;28;20536;-47
2021/12/17 08:28:49;;;;;;;6.70;3.67;;;;;;;23.02;27.72;101031.22;5074454;28;20044;-47
2021/12/17 08:31:15;;;;;;;9.70;4.15;;;;;;;22.63;28.32;101029.91;5080230;28;20051;-47
2021/12/17 08:33:40;;;;;;;8.15;4.40;;;;;;;22.35;28.73;101029.75;5095986;28;20056;-47
2021/12/17 08:36:05;;;;;;;11.82;3.95;;;;;;;22.10;29.13;101028.91;5089252;28;20439;-53
2021/12/17 08:38:31;;;;;;;9.38;3.95;;;;;;;21.93;29.07;101032.66;5089911;28;20066;-53
2021/12/17 08:40:59;;;;;;;5.93;3.60;;;;;;;21.79;29.32;101032.13;5086272;28;20052;-53
2021/12/17 08:43:25;;;;;;;7.22;3.65;;;;;;;21.69;29.55;101034.19;5087067;28;20046;-54
2021/12/17 08:45:51;;;;;;;9.55;4.45;;;;;;;21.60;29.87;101038.22;5083105;28;20048;-55
2021/12/17 08:48:16;;;;;;;6.82;4.00;;;;;;;21.55;29.89;101042.00;5089925;28;20848;-52
2021/12/17 08:50:42;;;;;;;5.93;3.83;;;;;;;21.54;29.76;101034.00;5079885;28;20040;-48
2021/12/17 08:53:07;;;;;;;6.38;3.80;;;;;;;21.49;29.80;101032.22;5081856;28;20052;-52
2021/12/17 08:55:33;;;;;;;9.27;4.00;;;;;;;21.45;30.18;101042.44;5081497;28;20071;-49
2021/12/17 08:58:01;;;;;;;6.45;3.88;;;;;;;21.42;30.48;101031.97;5078729;28;20468;-54
2021/12/17 09:00:27;;;;;;;7.75;3.90;;;;;;;21.40;30.42;101037.88;5090238;28;20412;-56
2021/12/17 09:02:58;;;;;;;9.02;3.83;;;;;;;21.39;30.43;101041.81;5087785;28;20408;-52
2021/12/17 09:05:23;;;;;;;9.10;4.07;;;;;;;21.33;30.45;101040.38;5084470;28;20032;-54
2021/12/17 09:07:49;;;;;;;6.97;3.67;;;;;;;21.33;30.41;101040.38;5085234;28;20055;-55
2021/12/17 09:10:20;;;;;;;10.65;4.00;;;;;;;21.30;30.56;101031.91;5084758;28;20044;-54
2021/12/17 09:12:45;;;;;;;6.10;3.60;;;;;;;21.30;30.50;101041.06;5089500;28;20100;-54
2021/12/17 09:15:11;;;;;;;7.22;3.70;;;;;;;21.30;30.80;101038.28;5082914;28;20044;-51
2021/12/17 09:17:37;;;;;;;6.65;3.85;;;;;;;21.31;30.42;101045.47;5070968;28;20127;-62
2021/12/17 09:20:06;;;;;;;7.50;3.40;;;;;;;21.31;30.76;101033.53;5079182;28;20055;-62
2021/12/17 09:22:32;;;;;;;12.07;4.00;;;;;;;21.31;30.65;101031.56;5088812;28;20059;-58
2021/12/17 09:24:58;;;;;;;20.13;5.05;;;;;;;21.32;31.01;101035.97;5082222;28;20036;-54
2021/12/17 09:27:23;;;;;;;6.90;4.10;;;;;;;21.34;31.18;101041.19;5086035;28;20464;-48
2021/12/17 09:29:48;;;;;;;13.55;4.65;;;;;;;21.31;30.89;101041.88;5077247;28;20049;-59
2021/12/17 09:32:14;;;;;;;83.32;17.77;;;;;;;21.29;31.28;101038.59;5077772;28;20097;-59
2021/12/17 09:34:39;;;;;;;162.48;34.30;;;;;;;21.25;31.23;101044.03;5078590;28;20040;-61
2021/12/17 09:37:06;;;;;;;114.78;26.13;;;;;;;21.28;31.07;101043.34;5077214;28;20090;-58
2021/12/17 09:39:32;;;;;;;108.47;25.45;;;;;;;21.25;31.35;101046.00;5086816;28;20097;-59
2021/12/17 09:41:58;;;;;;;108.40;23.30;;;;;;;21.23;31.56;101051.09;5087122;28;20032;-59
2021/12/17 09:44:23;;;;;;;96.60;21.83;;;;;;;21.19;31.34;101045.38;5077795;28;20135;-58
2021/12/17 09:46:49;;;;;;;92.18;20.42;;;;;;;21.18;31.31;101049.31;5081653;28;20404;-59
2021/12/17 09:49:17;;;;;;;73.45;17.30;;;;;;;21.21;31.63;101054.19;5077556;28;20048;-65
2021/12/17 09:51:43;;;;;;;67.65;17.70;;;;;;;21.20;31.55;101043.41;5083204;28;20032;-61
2021/12/17 09:54:10;;;;;;;56.50;15.20;;;;;;;21.25;31.80;101054.34;5074350;28;20036;-54
2021/12/17 09:56:36;;;;;;;46.17;13.63;;;;;;;21.26;31.84;101048.44;5085229;28;20074;-55
2021/12/17 09:59:01;;;;;;;36.95;11.35;;;;;;;21.29;31.57;101050.59;5086007;28;20450;-56
2021/12/17 10:01:27;;;;;;;44.03;11.60;;;;;;;21.32;31.73;101043.50;5082930;28;20067;-56
2021/12/17 10:04:11;;;;;;;29.00;9.60;;;;;;;22.19;30.34;101041.59;5077246;28;20074;-57
2021/12/17 10:06:37;;;;;;;26.20;6.78;;;;;;;23.45;28.35;101038.09;5084284;28;20151;-63
2021/12/17 10:09:02;;;;;;;22.92;6.50;;;;;;;23.30;28.50;101031.28;5079095;28;20119;-63
2021/12/17 10:11:28;;;;;;;15.77;6.30;;;;;;;22.97;28.70;101031.44;5080355;28;20048;-63
2021/12/17 10:13:53;;;;;;;16.92;5.80;;;;;;;22.64;29.34;101025.94;5083584;28;20049;-63
2021/12/17 10:16:21;;;;;;;14.95;5.68;;;;;;;22.37;29.83;101033.84;5077532;28;20075;-64
2021/12/17 10:18:49;;;;;;;16.08;5.38;;;;;;;22.13;29.95;101029.03;5077104;28;20044;-64
2021/12/17 10:21:20;;;;;;;12.75;5.25;;;;;;;22.01;30.31;101028.97;5085461;28;20512;-63
2021/12/17 10:23:46;;;;;;;11.98;5.07;;;;;;;21.94;30.56;101032.31;5079600;28;20044;-65
2021/12/17 10:26:14;;;;;;;15.93;5.95;;;;;;;21.91;30.95;101030.22;5084413;28;20527;-64
2021/12/17 10:28:55;;;;;;;10.48;4.88;;;;;;;21.87;31.23;101023.72;5075283;28;20057;-62
2021/12/17 10:31:21;;;;;;;11.68;4.68;;;;;;;21.84;30.91;101021.59;5085686;28;20520;-59
2021/12/17 10:33:52;;;;;;;8.63;4.28;;;;;;;21.83;31.39;101019.97;5084591;28;20495;-63
2021/12/17 10:36:18;;;;;;;13.45;4.60;;;;;;;21.83;31.35;101025.53;5076681;28;20046;-70
2021/12/17 10:38:45;;;;;;;11.48;4.32;;;;;;;21.83;31.51;101011.63;5075304;28;20044;-61
2021/12/17 10:41:14;;;;;;;13.40;4.13;;;;;;;21.79;31.88;101005.13;5078329;28;20052;-68
2021/12/17 10:43:47;;;;;;;7.80;4.15;;;;;;;21.77;31.50;101004.63;5079658;28;20063;-57
2021/12/17 10:46:25;;;;;;;11.70;3.78;;;;;;;21.74;31.44;100998.94;5081346;28;20125;-57
2021/12/17 10:49:01;;;;;;;11.52;4.00;;;;;;;21.70;31.49;100994.03;5086706;28;20118;-58
2021/12/17 10:54:04;;;;;;;8.80;3.47;;;;;;;21.70;31.16;100996.00;5082787;28;20135;-58
2021/12/17 10:56:35;;;;;;;6.47;3.53;;;;;;;21.66;31.33;100992.31;5084801;28;20044;-59
2021/12/17 10:59:07;;;;;;;10.32;3.15;;;;;;;21.64;31.38;100989.03;5086172;28;20511;-59
2021/12/17 11:01:47;;;;;;;6.65;3.78;;;;;;;21.64;31.33;100991.81;5082140;28;20128;-58
2021/12/17 11:04:23;;;;;;;8.07;3.70;;;;;;;21.63;31.46;100987.41;5084923;28;20389;-58
2021/12/17 11:06:54;;;;;;;6.25;3.25;;;;;;;21.58;31.13;100988.44;5087386;28;20135;-59
2021/12/17 11:09:38;;;;;;;8.52;3.00;;;;;;;21.56;31.45;100989.91;5076077;28;20044;-60
2021/12/17 11:12:22;;;;;;;5.10;3.17;;;;;;;21.55;31.42;100980.75;5079449;28;20051;-58
2021/12/17 11:14:48;;;;;;;6.50;3.00;;;;;;;21.46;31.70;100982.00;5075281;28;20149;-58
2021/12/17 11:17:16;;;;;;;7.97;3.10;;;;;;;21.47;31.96;100981.66;5073329;28;20056;-59
2021/12/17 11:19:42;;;;;;;5.45;2.97;;;;;;;21.57;32.11;100991.53;5077901;28;20044;-59
2021/12/17 11:22:08;;;;;;;5.70;3.28;;;;;;;21.60;31.61;100991.69;5080956;28;20044;-58
2021/12/17 11:24:35;;;;;;;16.05;4.05;;;;;;;21.59;31.41;101000.41;5085932;28;20044;-59
2021/12/17 11:27:06;;;;;;;9.02;3.72;;;;;;;21.56;31.62;101003.84;5075851;28;20068;-48
2021/12/17 11:29:32;;;;;;;6.43;3.53;;;;;;;21.54;31.31;101001.41;5073949;28;20048;-49
2021/12/17 11:32:00;;;;;;;6.32;3.72;;;;;;;21.52;31.39;100997.34;5087316;28;20055;-52
2021/12/17 11:34:26;;;;;;;4.70;3.35;;;;;;;21.49;31.35;100992.44;5088410;28;20385;-52
2021/12/17 11:36:53;;;;;;;5.63;3.42;;;;;;;21.40;31.28;100995.31;5088521;28;20036;-52
2021/12/17 11:39:24;;;;;;;6.85;3.30;;;;;;;21.38;31.17;101004.00;5077804;28;20032;-49
2021/12/17 11:41:59;;;;;;;5.93;3.40;;;;;;;21.35;30.95;101007.44;5069773;28;20052;-49
2021/12/17 11:44:39;;;;;;;7.28;3.28;;;;;;;21.33;31.05;100995.84;5085169;28;20067;-48
2021/12/17 11:47:07;;;;;;;4.63;3.30;;;;;;;21.31;30.99;101000.13;5087407;28;20068;-50
2021/12/17 11:50:03;;;;;;;5.80;3.20;;;;;;;21.25;31.08;100993.94;5086358;28;20450;-50
2021/12/17 11:52:35;;;;;;;5.10;3.10;;;;;;;21.22;30.87;100989.06;5085511;28;20139;-49
2021/12/17 11:55:22;;;;;;;4.85;3.30;;;;;;;21.21;30.77;100986.59;5076889;28;20046;-49
2021/12/17 11:57:50;;;;;;;4.43;3.03;;;;;;;21.19;30.73;100984.16;5073230;28;20074;-53
2021/12/17 12:00:21;;;;;;;5.05;3.28;;;;;;;21.17;30.73;100969.75;5085833;28;20058;-52
2021/12/17 12:02:49;;;;;;;5.93;3.03;;;;;;;21.19;30.82;100966.63;5068590;28;20040;-50
2021/12/17 12:05:35;;;;;;;4.53;3.15;;;;;;;21.17;30.91;100969.75;5086550;28;20036;-50
2021/12/17 12:08:48;;;;;;;4.38;3.03;;;;;;;21.16;30.45;100954.22;5088505;28;20044;-52
2021/12/17 12:11:27;;;;;;;4.97;3.10;;;;;;;21.11;30.63;100951.66;5072158;28;20471;-50
2021/12/17 12:13:54;;;;;;;4.05;2.67;;;;;;;21.12;30.64;100953.28;5070752;28;20435;-52
2021/12/17 12:16:24;;;;;;;4.45;2.97;;;;;;;21.12;30.59;100956.84;5077540;28;20271;-57
2021/12/17 12:19:10;;;;;;;4.10;3.00;;;;;;;21.07;30.76;100947.91;5089697;28;20059;-53
2021/12/17 12:21:38;;;;;;;4.63;3.13;;;;;;;21.10;30.40;100941.69;5091344;28;20048;-52
2021/12/17 12:24:16;;;;;;;4.13;2.33;;;;;;;21.10;30.35;100941.69;5091139;28;20381;-53
2021/12/17 12:26:48;;;;;;;4.22;2.90;;;;;;;21.10;30.35;100939.69;5080095;28;20105;-50
2021/12/17 12:29:21;;;;;;;4.15;2.60;;;;;;;21.10;30.21;100945.25;5084228;28;20416;-51
2021/12/17 12:32:17;;;;;;;5.00;2.85;;;;;;;21.08;30.48;100938.44;5090470;28;20039;-50
2021/12/17 12:34:42;;;;;;;3.33;2.35;;;;;;;21.12;30.12;100939.34;5085542;28;20078;-49
2021/12/17 12:37:08;;;;;;;4.38;3.08;;;;;;;21.11;30.30;100932.97;5090091;28;20071;-47
2021/12/17 12:39:49;;;;;;;4.00;2.42;;;;;;;21.10;29.98;100941.69;5089982;28;20048;-49
2021/12/17 12:42:23;;;;;;;3.88;2.75;;;;;;;21.14;29.98;100926.72;5089906;28;20439;-47
2021/12/17 12:44:48;;;;;;;3.30;2.35;;;;;;;21.19;29.90;100939.63;5084498;28;20040;-51
2021/12/17 12:47:26;;;;;;;4.22;2.70;;;;;;;21.21;29.98;100937.31;5084026;28;20533;-52
2021/12/17 12:49:59;;;;;;;3.80;2.90;;;;;;;21.23;29.91;100940.59;5086787;28;20516;-55
2021/12/17 12:52:31;;;;;;;3.80;2.63;;;;;;;21.24;29.54;100936.66;5088651;28;20047;-52
2021/12/17 12:55:07;;;;;;;4.00;2.72;;;;;;;21.26;29.74;100937.09;5086211;28;20127;-53
2021/12/17 12:57:41;;;;;;;5.93;2.63;;;;;;;21.28;30.22;100932.03;5084076;28;20131;-53
2021/12/17 13:00:11;;;;;;;4.10;2.65;;;;;;;21.42;30.10;100937.31;5086866;28;20070;-57
2021/12/17 13:02:37;;;;;;;3.28;2.50;;;;;;;21.48;30.55;100935.13;5085874;28;20051;-54
2021/12/17 13:05:06;;;;;;;8.60;2.60;;;;;;;21.48;30.50;100932.34;5089451;28;20039;-57
2021/12/17 13:07:50;;;;;;;8.10;3.03;;;;;;;21.50;30.64;100930.84;5089778;28;20060;-57
2021/12/17 13:10:23;;;;;;;3.72;2.50;;;;;;;21.55;30.71;100939.00;5089189;28;20189;-51
2021/12/17 13:13:06;;;;;;;3.90;2.72;;;;;;;21.50;30.86;100933.63;5085245;28;20036;-58
2021/12/17 13:15:42;;;;;;;;;;;;;;;21.49;30.97;100928.41;5088630;28;20142;-54
2021/12/17 13:23:57;;;;;;;60.78;13.32;;;;;;;21.46;31.45;100913.22;5020242;28;20140;-56
2021/12/17 13:26:24;;;;;;;51.25;11.18;;;;;;;21.46;31.41;100913.22;5025267;28;20418;-58
2021/12/17 13:28:58;;;;;;;40.50;10.40;;;;;;;21.47;31.24;100919.59;5024395;28;20084;-57
2021/12/17 13:31:36;;;;;;;34.15;9.23;;;;;;;21.46;31.29;100915.19;5024635;28;20038;-58
2021/12/17 13:34:11;;;;;;;32.13;7.97;;;;;;;21.47;31.29;100911.25;5085621;28;20070;-54
2021/12/17 13:36:43;;;;;;;25.17;6.65;;;;;;;21.48;31.53;100907.31;5096703;28;20048;-51
2021/12/17 13:39:10;;;;;;;18.38;6.28;;;;;;;21.48;31.23;100904.50;5102075;28;20085;-55
2021/12/17 13:41:44;;;;;;;20.48;6.10;;;;;;;21.47;31.42;100906.50;5102951;28;20051;-61
2021/12/17 13:44:29;;;;;;;15.23;5.28;;;;;;;21.43;31.39;100900.81;5101259;28;20040;-60
2021/12/17 13:47:33;;;;;;;14.13;5.13;;;;;;;21.43;31.94;100894.41;5074714;28;20500;-62
2021/12/17 13:50:05;;;;;;;;;;;;;;;21.45;31.81;100899.66;5098283;28;20456;-60
2021/12/17 13:52:32;;;;;;;11.10;4.60;;;;;;;21.49;32.13;100892.22;5105265;28;20014;-61
2021/12/17 13:55:00;;;;;;;16.70;4.35;;;;;;;21.49;32.19;100906.13;5105583;28;20093;-65
2021/12/17 13:57:29;;;;;;;11.32;4.25;;;;;;;21.47;32.22;100903.72;5103478;28;20123;-62
2021/12/17 14:00:09;;;;;;;11.07;4.70;;;;;;;21.51;32.49;100889.94;5088318;28;20055;-62
2021/12/17 14:02:36;;;;;;;11.18;3.72;;;;;;;21.53;32.22;100893.19;5101045;28;20075;-61
2021/12/17 14:05:14;;;;;;;9.18;4.00;;;;;;;21.51;32.24;100903.84;5092961;28;20039;-61
2021/12/17 14:07:40;;;;;;;8.80;3.95;;;;;;;21.49;32.20;100901.38;5101189;28;20496;-62
2021/12/17 14:10:05;;;;;;;6.95;3.50;;;;;;;21.49;32.26;100898.59;5107361;28;20044;-63
2021/12/17 14:12:36;;;;;;;10.23;3.90;;;;;;;21.53;32.06;100905.13;5102972;28;20110;-60
2021/12/17 14:15:08;;;;;;;9.00;2.78;;;;;;;21.57;31.70;100899.66;5091861;28;20754;-64
2021/12/17 14:17:36;;;;;;;10.13;3.33;;;;;;;21.58;31.97;100902.13;5092349;28;21265;-67
2021/12/17 14:20:09;;;;;;;6.93;2.92;;;;;;;21.59;31.84;100895.41;5092626;28;20301;-67
2021/12/17 14:22:37;;;;;;;5.43;3.10;;;;;;;21.58;31.56;100899.34;5090670;28;20507;-62
2021/12/17 14:25:22;;;;;;;13.88;2.97;;;;;;;21.58;31.60;100895.75;5096871;28;20562;-61